createdAt,value
2023-05-20T00:00:02.274Z,6.03
2023-05-20T00:02:31.225Z,6.90
2023-05-20T00:04:59.714Z,6.68
2023-05-20T00:07:28.156Z,7.18
2023-05-20T00:09:56.507Z,6.35
2023-05-20T00:12:24.800Z,6.20
2023-05-20T00:14:55.927Z,8.95
2023-05-20T00:17:26.532Z,7.43
2023-05-20T00:19:54.933Z,5.45
2023-05-20T00:22:23.305Z,7.80
2023-05-20T00:24:51.623Z,7.80
2023-05-20T00:27:19.990Z,7.00
2023-05-20T00:29:48.274Z,8.25
2023-05-20T00:32:17.999Z,9.82
2023-05-20T00:34:46.349Z,7.30
2023-05-20T00:37:14.656Z,6.50
2023-05-20T00:39:42.925Z,7.20
2023-05-20T00:42:11.173Z,8.77
2023-05-20T00:44:39.486Z,7.50
2023-05-20T00:47:07.780Z,7.32
2023-05-20T00:49:37.510Z,7.72
2023-05-20T00:52:06.647Z,7.53
2023-05-20T00:54:35.001Z,7.22
2023-05-20T00:57:03.891Z,8.13
2023-05-20T00:59:32.256Z,8.48
2023-05-20T01:02:00.599Z,8.55
2023-05-20T01:04:29.062Z,7.65
2023-05-20T01:06:58.899Z,9.57
2023-05-20T01:09:27.301Z,7.55
2023-05-20T01:11:57.963Z,8.25
2023-05-20T01:14:28.475Z,8.80
2023-05-20T01:16:58.491Z,7.07
2023-05-20T01:19:29.975Z,8.90
2023-05-20T01:22:00.598Z,8.48
2023-05-20T01:26:58.400Z,10.38
2023-05-20T01:29:26.878Z,8.13
2023-05-20T01:31:56.497Z,8.77
2023-05-20T01:34:25.393Z,7.70
2023-05-20T01:36:54.742Z,8.75
2023-05-20T01:39:23.949Z,10.43
2023-05-20T01:41:54.690Z,8.90
2023-05-20T01:44:23.197Z,8.43
2023-05-20T01:46:51.567Z,10.13
2023-05-20T01:49:19.921Z,9.32
2023-05-20T01:51:48.289Z,8.43
2023-05-20T01:54:16.614Z,9.88
2023-05-20T01:56:45.337Z,14.60
2023-05-20T01:59:15.074Z,9.00
2023-05-20T02:01:43.669Z,11.02
2023-05-20T02:04:12.002Z,8.63
2023-05-20T02:06:40.288Z,10.57
2023-05-20T02:09:08.876Z,10.65
2023-05-20T02:11:37.161Z,9.88
2023-05-20T02:14:05.545Z,9.73
2023-05-20T02:16:35.259Z,11.25
2023-05-20T02:19:03.726Z,12.20
2023-05-20T02:21:32.285Z,11.20
2023-05-20T02:24:00.521Z,9.38
2023-05-20T02:26:28.886Z,16.38
2023-05-20T02:28:57.342Z,10.00
2023-05-20T02:31:25.959Z,9.82
2023-05-20T02:33:55.856Z,11.93
2023-05-20T02:36:24.163Z,10.10
2023-05-20T02:38:54.704Z,10.80
2023-05-20T02:43:51.024Z,11.38
2023-05-20T02:46:19.991Z,11.70
2023-05-20T02:48:48.271Z,10.10
2023-05-20T02:51:18.361Z,10.25
2023-05-20T02:53:47.461Z,11.23
2023-05-20T02:56:16.302Z,10.85
2023-05-20T02:58:44.660Z,10.73
2023-05-20T03:01:13.017Z,10.45
2023-05-20T03:03:41.707Z,12.20
2023-05-20T03:06:10.202Z,9.57
2023-05-20T03:08:40.249Z,14.27
2023-05-20T03:11:08.504Z,10.68
2023-05-20T03:13:36.821Z,9.90
2023-05-20T03:16:05.656Z,11.43
2023-05-20T03:18:34.341Z,10.98
2023-05-20T03:21:02.685Z,15.50
2023-05-20T03:23:30.960Z,11.80
2023-05-20T03:26:00.605Z,11.60
2023-05-20T03:28:28.917Z,11.20
2023-05-20T03:30:57.240Z,12.70
2023-05-20T03:33:26.403Z,10.93
2023-05-20T03:35:54.770Z,10.88
2023-05-20T03:38:23.241Z,12.82
2023-05-20T03:40:51.510Z,12.88
2023-05-20T03:43:21.259Z,11.63
2023-05-20T03:45:49.559Z,13.45
2023-05-20T03:48:17.869Z,12.73
2023-05-20T03:50:46.143Z,18.65
2023-05-20T03:53:14.454Z,10.43
2023-05-20T03:55:43.626Z,14.98
2023-05-20T03:58:13.482Z,10.13
2023-05-20T04:00:43.263Z,10.15
2023-05-20T04:03:11.672Z,10.00
2023-05-20T04:05:40.140Z,12.63
2023-05-20T04:08:10.040Z,9.15
2023-05-20T04:10:38.299Z,8.98
2023-05-20T04:13:06.656Z,9.40
2023-05-20T04:15:36.951Z,10.57
2023-05-20T04:18:08.194Z,9.52
2023-05-20T04:20:37.075Z,11.13
2023-05-20T04:23:05.436Z,10.07
2023-05-20T04:25:34.738Z,11.50
2023-05-20T04:28:03.029Z,10.77
2023-05-20T04:30:33.573Z,11.65
2023-05-20T04:33:03.617Z,8.73
2023-05-20T04:35:35.226Z,8.70
2023-05-20T04:38:03.767Z,8.60
2023-05-20T04:40:32.507Z,8.50
2023-05-20T04:43:01.324Z,10.90
2023-05-20T04:45:29.610Z,9.52
2023-05-20T04:47:58.125Z,9.80
2023-05-20T04:50:26.559Z,11.90
2023-05-20T04:52:56.182Z,8.35
2023-05-20T04:55:25.913Z,10.50
2023-05-20T04:57:54.197Z,9.38
2023-05-20T05:00:23.636Z,10.20
2023-05-20T05:02:52.004Z,10.20
2023-05-20T05:05:20.369Z,9.68
2023-05-20T05:07:49.142Z,11.73
2023-05-20T05:10:18.979Z,9.93
2023-05-20T05:12:48.472Z,9.32
2023-05-20T05:15:16.957Z,10.52
2023-05-20T05:17:45.271Z,8.23
2023-05-20T05:20:13.582Z,11.65
2023-05-20T05:22:41.910Z,9.70
2023-05-20T05:25:11.364Z,10.68
2023-05-20T05:27:41.240Z,10.32
2023-05-20T05:30:10.700Z,11.38
2023-05-20T05:32:39.144Z,12.68
2023-05-20T05:35:08.450Z,9.27
2023-05-20T05:37:37.006Z,9.77
2023-05-20T05:40:06.071Z,11.73
2023-05-20T05:42:34.400Z,8.85
2023-05-20T05:45:04.872Z,7.75
2023-05-20T05:47:33.229Z,9.18
2023-05-20T05:50:01.664Z,9.05
2023-05-20T05:52:29.997Z,9.25
2023-05-20T05:54:58.344Z,9.00
2023-05-20T05:57:26.699Z,8.98
2023-05-20T05:59:55.036Z,10.48
2023-05-20T06:02:24.904Z,10.20
2023-05-20T06:04:53.284Z,10.85
2023-05-20T06:07:21.627Z,10.35
2023-05-20T06:09:49.987Z,9.80
2023-05-20T06:12:18.306Z,10.77
2023-05-20T06:14:46.604Z,8.82
2023-05-20T06:17:14.960Z,9.70
2023-05-20T06:19:44.732Z,9.50
2023-05-20T06:22:13.022Z,10.48
2023-05-20T06:24:41.293Z,10.07
2023-05-20T06:27:09.641Z,10.02
2023-05-20T06:29:38.001Z,10.07
2023-05-20T06:32:07.080Z,10.95
2023-05-20T06:34:35.429Z,13.10
2023-05-20T06:37:05.348Z,9.77
2023-05-20T06:39:33.673Z,11.77
2023-05-20T06:42:01.958Z,13.07
2023-05-20T06:44:30.517Z,12.05
2023-05-20T06:46:58.862Z,10.10
2023-05-20T06:49:27.738Z,9.85
2023-05-20T06:51:56.072Z,12.40
2023-05-20T06:54:25.703Z,9.32
2023-05-20T06:56:54.005Z,9.20
2023-05-20T06:59:22.384Z,9.40
2023-05-20T07:01:50.657Z,9.73
2023-05-20T07:04:18.993Z,10.85
2023-05-20T07:06:47.246Z,8.65
2023-05-20T07:09:15.522Z,8.82
2023-05-20T07:11:45.277Z,10.75
2023-05-20T07:14:13.625Z,9.73
2023-05-20T07:16:41.925Z,10.23
2023-05-20T07:19:10.791Z,8.75
2023-05-20T07:21:39.144Z,9.23
2023-05-20T07:24:07.854Z,10.55
2023-05-20T07:26:36.650Z,10.27
2023-05-20T07:29:06.590Z,8.98
2023-05-20T07:31:34.952Z,11.82
2023-05-20T07:34:03.382Z,10.35
2023-05-20T07:36:31.805Z,10.00
2023-05-20T07:39:04.240Z,11.35
2023-05-20T07:41:33.430Z,10.90
2023-05-20T07:44:03.380Z,8.57
2023-05-20T07:46:33.199Z,7.82
2023-05-20T07:49:01.683Z,8.70
2023-05-20T07:51:29.964Z,7.85
2023-05-20T07:53:58.337Z,7.80
2023-05-20T07:56:26.703Z,8.18
2023-05-20T07:58:59.691Z,7.75
2023-05-20T08:01:28.473Z,10.27
2023-05-20T08:03:58.267Z,7.50
2023-05-20T08:06:29.361Z,7.93
2023-05-20T08:08:58.135Z,13.43
2023-05-20T08:11:26.485Z,10.18
2023-05-20T08:13:54.943Z,8.20
2023-05-20T08:16:23.458Z,15.68
2023-05-20T08:18:51.845Z,9.43
2023-05-20T08:21:21.741Z,10.60
2023-05-20T08:23:50.531Z,11.73
2023-05-20T08:26:18.804Z,14.48
2023-05-20T08:28:47.295Z,11.68
2023-05-20T08:31:15.825Z,8.50
2023-05-20T08:33:44.112Z,8.07
2023-05-20T08:36:12.406Z,8.60
2023-05-20T08:38:42.119Z,9.05
2023-05-20T08:41:10.464Z,8.60
2023-05-20T08:43:38.871Z,11.70
2023-05-20T08:46:07.542Z,8.02
2023-05-20T08:48:36.989Z,9.05
2023-05-20T08:51:05.686Z,8.05
2023-05-20T08:53:34.024Z,7.95
2023-05-20T08:56:04.157Z,10.68
2023-05-20T08:58:32.822Z,10.65
2023-05-20T09:01:01.302Z,9.02
2023-05-20T09:03:29.644Z,10.57
2023-05-20T09:06:05.348Z,9.95
2023-05-20T09:08:34.351Z,10.52
2023-05-20T09:11:04.270Z,9.48
2023-05-20T09:13:34.032Z,10.50
2023-05-20T09:16:03.510Z,10.77
2023-05-20T09:18:32.156Z,7.80
2023-05-20T09:21:06.833Z,7.97
2023-05-20T09:23:37.968Z,9.13
2023-05-20T09:26:07.668Z,8.57
2023-05-20T09:28:38.320Z,8.00
2023-05-20T09:31:07.191Z,8.57
2023-05-20T09:33:35.707Z,7.95
2023-05-20T09:36:05.481Z,7.50
2023-05-20T09:38:37.920Z,6.53
2023-05-20T09:41:09.325Z,7.13
2023-05-20T09:43:37.833Z,7.50
2023-05-20T09:46:06.606Z,8.23
2023-05-20T09:48:37.262Z,7.57
2023-05-20T09:51:06.878Z,8.05
2023-05-20T09:53:35.540Z,7.32
2023-05-20T09:56:04.194Z,6.18
2023-05-20T09:58:35.331Z,8.63
2023-05-20T10:01:03.733Z,8.13
2023-05-20T10:03:33.566Z,8.15
2023-05-20T10:06:13.679Z,6.65
2023-05-20T10:08:56.977Z,9.40
2023-05-20T10:11:29.365Z,7.05
2023-05-20T10:14:13.467Z,8.73
2023-05-20T10:16:47.737Z,9.93
2023-05-20T10:19:26.695Z,7.68
2023-05-20T10:21:59.088Z,9.20
2023-05-20T10:24:34.852Z,9.95
2023-05-20T10:27:05.621Z,10.05
2023-05-20T10:29:45.071Z,9.68
2023-05-20T10:32:13.503Z,8.85
2023-05-20T10:34:48.663Z,7.10
2023-05-20T10:37:25.897Z,7.93
2023-05-20T10:39:54.397Z,8.40
2023-05-20T10:42:29.836Z,6.05
2023-05-20T10:44:59.514Z,6.70
2023-05-20T10:47:27.827Z,6.45
2023-05-20T10:49:56.242Z,9.65
2023-05-20T10:52:25.219Z,8.95
2023-05-20T10:54:56.990Z,9.38
2023-05-20T10:57:26.968Z,7.72
2023-05-20T10:59:55.985Z,8.98
2023-05-20T11:02:27.191Z,6.47
2023-05-20T11:04:58.130Z,9.35
2023-05-20T11:07:28.109Z,6.20
2023-05-20T11:09:56.442Z,6.82
2023-05-20T11:12:25.558Z,6.63
2023-05-20T11:14:54.195Z,6.53
2023-05-20T11:17:22.777Z,7.50
2023-05-20T11:19:52.454Z,9.25
2023-05-20T11:22:20.708Z,8.20
2023-05-20T11:24:49.017Z,9.32
2023-05-20T11:27:17.293Z,7.65
2023-05-20T11:29:45.631Z,7.45
2023-05-20T11:32:14.154Z,7.28
2023-05-20T11:34:42.728Z,9.40
2023-05-20T11:37:12.689Z,9.48
2023-05-20T11:39:40.962Z,9.77
2023-05-20T11:42:09.313Z,8.65
2023-05-20T11:44:38.553Z,8.75
2023-05-20T11:47:07.702Z,6.95
2023-05-20T11:49:40.999Z,9.07
2023-05-20T11:52:12.571Z,9.77
2023-05-20T11:54:40.997Z,9.20
2023-05-20T11:57:09.371Z,10.05
2023-05-20T11:59:37.761Z,8.02
2023-05-20T12:02:06.520Z,7.53
2023-05-20T12:04:34.820Z,12.32
2023-05-20T12:07:04.115Z,6.60
2023-05-20T12:09:33.779Z,8.17
2023-05-20T12:12:02.765Z,9.73
2023-05-20T12:14:31.151Z,8.15
2023-05-20T12:16:59.882Z,7.78
2023-05-20T12:19:28.339Z,9.20
2023-05-20T12:21:56.749Z,8.00
2023-05-20T12:24:25.008Z,9.82
2023-05-20T12:26:54.659Z,8.98
2023-05-20T12:29:22.930Z,8.75
2023-05-20T12:31:51.261Z,11.45
2023-05-20T12:34:19.671Z,8.82
2023-05-20T12:36:48.458Z,7.65
2023-05-20T12:39:17.836Z,8.40
2023-05-20T12:41:46.499Z,7.57
2023-05-20T12:44:16.186Z,9.27
2023-05-20T12:46:44.503Z,9.63
2023-05-20T12:49:12.856Z,8.10
2023-05-20T12:51:41.136Z,8.63
2023-05-20T12:54:09.403Z,8.20
2023-05-20T12:56:37.726Z,7.10
2023-05-20T12:59:05.984Z,8.00
2023-05-20T13:01:36.040Z,10.00
2023-05-20T13:04:04.492Z,11.68
2023-05-20T13:06:32.944Z,7.68
2023-05-20T13:09:01.244Z,8.45
2023-05-20T13:11:29.557Z,16.05
2023-05-20T13:13:58.072Z,11.30
2023-05-20T13:16:26.824Z,9.30
2023-05-20T13:18:56.730Z,12.88
2023-05-20T13:21:25.078Z,11.82
2023-05-20T13:23:53.384Z,10.05
2023-05-20T13:26:21.929Z,9.25
2023-05-20T13:28:50.235Z,9.30
2023-05-20T13:31:18.672Z,10.23
2023-05-20T13:33:46.965Z,8.10
2023-05-20T13:36:16.665Z,9.00
2023-05-20T13:38:44.972Z,13.60
2023-05-20T13:41:13.281Z,8.48
2023-05-20T13:43:42.232Z,10.45
2023-05-20T13:46:10.738Z,9.13
2023-05-20T13:48:39.189Z,9.32
2023-05-20T13:51:07.529Z,9.85
2023-05-20T13:53:37.195Z,8.68
2023-05-20T13:56:05.779Z,9.25
2023-05-20T13:58:34.114Z,8.10
2023-05-20T14:01:02.428Z,10.35
2023-05-20T14:03:31.077Z,11.60
2023-05-20T14:05:59.542Z,9.25
2023-05-20T14:08:27.883Z,9.98
2023-05-20T14:10:57.535Z,12.88
2023-05-20T14:13:26.103Z,9.65
2023-05-20T14:15:55.670Z,10.38
2023-05-20T14:18:23.991Z,8.27
2023-05-20T14:20:52.375Z,9.18
2023-05-20T14:23:21.426Z,9.77
2023-05-20T14:25:49.731Z,10.25
2023-05-20T14:28:19.388Z,11.45
2023-05-20T14:30:47.663Z,10.02
2023-05-20T14:33:16.040Z,12.38
2023-05-20T14:35:44.494Z,11.73
2023-05-20T14:38:12.837Z,9.88
2023-05-20T14:40:41.123Z,10.52
2023-05-20T14:43:09.564Z,9.85
2023-05-20T14:45:39.290Z,8.98
2023-05-20T14:48:08.036Z,10.82
2023-05-20T14:50:36.607Z,9.65
2023-05-20T14:53:05.613Z,11.25
2023-05-20T14:55:33.883Z,10.57
2023-05-20T14:58:02.182Z,10.32
2023-05-20T15:00:30.597Z,9.82
2023-05-20T15:03:00.361Z,9.23
2023-05-20T15:05:28.775Z,13.10
2023-05-20T15:07:57.332Z,9.90
2023-05-20T15:10:25.787Z,12.35
2023-05-20T15:12:54.055Z,10.95
2023-05-20T15:15:22.489Z,10.70
2023-05-20T15:17:50.950Z,13.10
2023-05-20T15:20:20.602Z,10.18
2023-05-20T15:22:48.883Z,10.38
2023-05-20T15:25:17.444Z,10.82
2023-05-20T15:27:45.720Z,13.65
2023-05-20T15:30:15.145Z,9.05
2023-05-20T15:32:43.759Z,12.43
2023-05-20T15:35:12.181Z,10.63
2023-05-20T15:37:42.200Z,10.07
2023-05-20T15:40:11.628Z,9.65
2023-05-20T15:42:39.949Z,14.10
2023-05-20T15:45:09.174Z,13.00
2023-05-20T15:47:39.876Z,9.38
2023-05-20T15:50:11.163Z,10.30
2023-05-20T15:52:40.929Z,9.98
2023-05-20T15:55:10.868Z,11.05
2023-05-20T15:57:39.216Z,8.90
2023-05-20T16:00:10.498Z,10.77
2023-05-20T16:02:40.361Z,10.30
2023-05-20T16:05:09.235Z,11.20
2023-05-20T16:07:37.574Z,13.07
2023-05-20T16:10:08.555Z,10.63
2023-05-20T16:12:36.892Z,11.48
2023-05-20T16:15:05.828Z,14.13
2023-05-20T16:17:34.137Z,11.75
2023-05-20T16:20:02.511Z,11.57
2023-05-20T16:22:30.808Z,10.93
2023-05-20T16:24:59.074Z,9.52
2023-05-20T16:27:30.052Z,10.77
2023-05-20T16:29:58.374Z,12.40
2023-05-20T16:32:27.137Z,11.65
2023-05-20T16:34:55.681Z,11.35
2023-05-20T16:37:23.917Z,9.05
2023-05-20T16:39:52.150Z,12.30
2023-05-20T16:42:20.411Z,16.85
2023-05-20T16:44:51.528Z,8.73
2023-05-20T16:47:19.910Z,10.27
2023-05-20T16:49:48.161Z,10.30
2023-05-20T16:52:16.545Z,11.57
2023-05-20T16:54:44.998Z,10.40
2023-05-20T16:57:15.912Z,11.65
2023-05-20T16:59:44.185Z,10.60
2023-05-20T17:02:13.821Z,10.52
2023-05-20T17:04:42.199Z,15.68
2023-05-20T17:07:11.394Z,15.32
2023-05-20T17:09:39.668Z,12.52
2023-05-20T17:12:08.552Z,10.70
2023-05-20T17:14:37.034Z,16.23
2023-05-20T17:17:06.025Z,12.70
2023-05-20T17:19:35.879Z,10.27
2023-05-20T17:22:04.157Z,12.25
2023-05-20T17:24:33.083Z,14.85
2023-05-20T17:27:01.964Z,10.80
2023-05-20T17:29:30.296Z,12.15
2023-05-20T17:31:58.605Z,13.52
2023-05-20T17:34:26.861Z,11.90
2023-05-20T17:36:57.177Z,15.27
2023-05-20T17:41:53.450Z,11.65
2023-05-20T17:44:21.695Z,12.18
2023-05-20T17:46:49.991Z,12.85
2023-05-20T17:49:18.420Z,13.55
2023-05-20T17:51:46.738Z,16.55
2023-05-20T17:54:16.384Z,13.70
2023-05-20T17:56:47.616Z,12.90
2023-05-20T17:59:15.951Z,12.13
2023-05-20T18:01:44.786Z,12.30
2023-05-20T18:04:13.271Z,15.40
2023-05-20T18:06:41.739Z,14.38
2023-05-20T18:09:10.328Z,11.93
2023-05-20T18:11:40.082Z,11.38
2023-05-20T18:14:08.357Z,12.73
2023-05-20T18:16:36.713Z,14.05
2023-05-20T18:19:05.262Z,15.50
2023-05-20T18:21:33.582Z,12.38
2023-05-20T18:24:01.906Z,13.98
2023-05-20T18:26:30.223Z,11.60
2023-05-20T18:28:59.913Z,12.35
2023-05-20T18:31:28.231Z,14.20
2023-05-20T18:33:56.518Z,16.88
2023-05-20T18:36:25.018Z,14.13
2023-05-20T18:38:53.293Z,14.88
2023-05-20T18:41:23.599Z,14.52
2023-05-20T18:43:55.340Z,13.00
2023-05-20T18:46:25.039Z,18.85
2023-05-20T18:48:53.342Z,16.25
2023-05-20T18:51:21.637Z,13.02
2023-05-20T18:53:49.931Z,15.43
2023-05-20T18:56:18.323Z,18.52
2023-05-20T18:58:46.847Z,15.82
2023-05-20T19:01:15.223Z,16.10
2023-05-20T19:03:45.079Z,14.60
2023-05-20T19:06:13.935Z,18.00
2023-05-20T19:08:42.205Z,16.77
2023-05-20T19:11:10.591Z,18.75
2023-05-20T19:13:38.876Z,15.77
2023-05-20T19:16:07.601Z,20.73
2023-05-20T19:18:35.929Z,14.93
2023-05-20T19:21:05.958Z,15.98
2023-05-20T19:23:34.307Z,19.83
2023-05-20T19:26:02.637Z,16.95
2023-05-20T19:28:30.935Z,17.35
2023-05-20T19:30:59.255Z,18.40
2023-05-20T19:33:27.569Z,16.50
2023-05-20T19:35:57.716Z,16.95
2023-05-20T19:38:27.392Z,16.02
2023-05-20T19:40:55.701Z,16.63
2023-05-20T19:43:24.281Z,21.35
2023-05-20T19:45:52.683Z,15.85
2023-05-20T19:48:22.444Z,15.60
2023-05-20T19:50:50.854Z,17.88
2023-05-20T19:53:20.885Z,16.48
2023-05-20T19:55:50.691Z,17.95
2023-05-20T19:58:18.982Z,14.45
2023-05-20T20:00:47.276Z,15.50
2023-05-20T20:03:15.678Z,17.13
2023-05-20T20:05:44.106Z,15.82
2023-05-20T20:08:12.473Z,17.60
2023-05-20T20:10:40.833Z,14.90
2023-05-20T20:13:10.541Z,15.10
2023-05-20T20:15:40.094Z,14.05
2023-05-20T20:18:08.423Z,16.60
2023-05-20T20:20:40.079Z,15.88
2023-05-20T20:23:08.926Z,17.65
2023-05-20T20:25:38.717Z,16.17
2023-05-20T20:28:07.215Z,16.88
2023-05-20T20:30:37.289Z,15.90
2023-05-20T20:33:07.139Z,16.20
2023-05-20T20:35:36.186Z,15.20
2023-05-20T20:38:08.851Z,16.92
2023-05-20T20:40:41.601Z,17.98
2023-05-20T20:43:10.904Z,16.58
2023-05-20T20:45:40.664Z,16.52
2023-05-20T20:48:09.075Z,14.18
2023-05-20T20:50:37.522Z,18.08
2023-05-20T20:53:05.879Z,15.90
2023-05-20T20:55:34.412Z,13.63
2023-05-20T20:58:04.794Z,15.98
2023-05-20T21:00:33.848Z,13.23
2023-05-20T21:03:03.685Z,17.65
2023-05-20T21:05:31.932Z,13.95
2023-05-20T21:08:03.194Z,16.48
2023-05-20T21:10:31.617Z,18.25
2023-05-20T21:13:00.302Z,16.35
2023-05-20T21:15:28.608Z,16.38
2023-05-20T21:17:57.002Z,14.98
2023-05-20T21:20:26.821Z,14.38
2023-05-20T21:22:55.096Z,14.10
2023-05-20T21:25:23.364Z,15.05
2023-05-20T21:27:51.793Z,15.35
2023-05-20T21:30:20.168Z,17.27
2023-05-20T21:32:48.545Z,18.27
2023-05-20T21:35:17.044Z,17.80
2023-05-20T21:37:46.702Z,16.48
2023-05-20T21:40:15.058Z,15.75
2023-05-20T21:42:43.351Z,14.68
2023-05-20T21:45:12.179Z,14.00
2023-05-20T21:47:40.572Z,14.52
2023-05-20T21:50:09.723Z,16.88
2023-05-20T21:52:39.804Z,16.17
2023-05-20T21:55:10.950Z,17.50
2023-05-20T21:57:39.234Z,18.60
2023-05-20T22:00:14.226Z,15.55
2023-05-20T22:02:42.786Z,15.73
2023-05-20T22:05:11.869Z,14.90
2023-05-20T22:07:42.016Z,15.43
2023-05-20T22:10:12.707Z,18.05
2023-05-20T22:12:42.405Z,19.30
2023-05-20T22:15:11.707Z,19.13
2023-05-20T22:17:40.185Z,17.85
2023-05-20T22:20:10.666Z,18.27
2023-05-20T22:25:08.740Z,15.88
2023-05-20T22:27:38.809Z,15.52
2023-05-20T22:30:08.621Z,16.48
2023-05-20T22:32:37.044Z,16.40
2023-05-20T22:35:05.915Z,16.38
2023-05-20T22:37:34.208Z,19.92
2023-05-20T22:40:02.515Z,17.17
2023-05-20T22:42:30.792Z,14.27
2023-05-20T22:45:00.561Z,16.15
2023-05-20T22:47:28.852Z,18.30
2023-05-20T22:49:57.551Z,16.60
2023-05-20T22:52:26.318Z,16.80
2023-05-20T22:54:54.630Z,16.40
2023-05-20T22:57:22.930Z,15.30
2023-05-20T22:59:52.013Z,16.52
2023-05-20T23:02:21.668Z,18.67
2023-05-20T23:04:50.148Z,15.20
2023-05-20T23:07:19.393Z,16.48
2023-05-20T23:09:48.567Z,15.07
2023-05-20T23:12:17.182Z,13.60
2023-05-20T23:14:45.697Z,15.30
2023-05-20T23:17:14.013Z,14.93
2023-05-20T23:19:43.764Z,14.05
2023-05-20T23:22:12.092Z,14.25
2023-05-20T23:24:40.412Z,17.20
2023-05-20T23:27:08.745Z,13.43
2023-05-20T23:29:37.074Z,15.85
2023-05-20T23:32:06.178Z,15.07
2023-05-20T23:34:35.167Z,14.95
2023-05-20T23:37:05.081Z,17.30
2023-05-20T23:39:33.390Z,15.48
2023-05-20T23:42:01.705Z,13.75
2023-05-20T23:44:29.999Z,16.13
2023-05-20T23:46:58.326Z,13.38
2023-05-20T23:49:27.240Z,14.05
2023-05-20T23:51:55.675Z,14.50
2023-05-20T23:54:25.346Z,15.18
2023-05-20T23:56:54.048Z,12.93
2023-05-20T23:59:22.325Z,15.43
